sensor_id;sensor_type;location;lat;lon;timestamp;pressure;altitude;pressure_sealevel;temperature;humidity
72560;BME280;62987;52.382;9.752;2023-07-28T00:00:39;99623.00;;;16.98;100.00
72560;BME280;62987;52.382;9.752;2023-07-28T00:03:08;99662.22;;;17.22;100.00
72560;BME280;62987;52.382;9.752;2023-07-28T00:05:36;99638.31;;;16.98;100.00
72560;BME280;62987;52.382;9.752;2023-07-28T00:08:04;99665.88;;;17.21;100.00
72560;BME280;62987;52.382;9.752;2023-07-28T00:10:32;99665.88;;;17.21;100.00
72560;BME280;62987;52.382;9.752;2023-07-28T00:13:00;99662.47;;;17.18;100.00
72560;BME280;62987;52.382;9.752;2023-07-28T00:15:29;99633.38;;;17.03;100.00
72560;BME280;62987;52.382;9.752;2023-07-28T00:17:57;99644.19;;;17.12;100.00
72560;BME280;62987;52.382;9.752;2023-07-28T00:20:28;99651.00;;;17.16;100.00
72560;BME280;62987;52.382;9.752;2023-07-28T00:22:56;99649.84;;;17.09;100.00
72560;BME280;62987;52.382;9.752;2023-07-28T00:25:24;99653.69;;;17.16;100.00
72560;BME280;62987;52.382;9.752;2023-07-28T00:27:52;99656.84;;;17.22;100.00
72560;BME280;62987;52.382;9.752;2023-07-28T00:30:20;99647.47;;;17.16;100.00
72560;BME280;62987;52.382;9.752;2023-07-28T00:32:48;99661.94;;;17.25;100.00
72560;BME280;62987;52.382;9.752;2023-07-28T00:35:17;99666.59;;;17.23;100.00
72560;BME280;62987;52.382;9.752;2023-07-28T00:37:46;99667.59;;;17.22;100.00
72560;BME280;62987;52.382;9.752;2023-07-28T00:40:14;99665.34;;;17.27;100.00
72560;BME280;62987;52.382;9.752;2023-07-28T00:42:42;99667.06;;;17.28;100.00
72560;BME280;62987;52.382;9.752;2023-07-28T00:45:10;99673.81;;;17.22;100.00
72560;BME280;62987;52.382;9.752;2023-07-28T00:47:38;99667.84;;;17.18;100.00
72560;BME280;62987;52.382;9.752;2023-07-28T00:50:08;99668.13;;;17.15;100.00
72560;BME280;62987;52.382;9.752;2023-07-28T00:52:39;99663.31;;;17.19;100.00
72560;BME280;62987;52.382;9.752;2023-07-28T00:55:09;99674.06;;;17.19;100.00
72560;BME280;62987;52.382;9.752;2023-07-28T00:57:37;99674.34;;;17.16;100.00
72560;BME280;62987;52.382;9.752;2023-07-28T01:00:07;99668.13;;;17.15;100.00
72560;BME280;62987;52.382;9.752;2023-07-28T01:02:35;99665.22;;;17.07;100.00
72560;BME280;62987;52.382;9.752;2023-07-28T01:05:04;99647.91;;;17.00;100.00
72560;BME280;62987;52.382;9.752;2023-07-28T01:07:37;99673.38;;;17.17;100.00
72560;BME280;62987;52.382;9.752;2023-07-28T01:10:11;99676.91;;;17.17;100.00
72560;BME280;62987;52.382;9.752;2023-07-28T01:12:41;99662.13;;;17.12;100.00
72560;BME280;62987;52.382;9.752;2023-07-28T01:15:09;99663.97;;;17.11;100.00
72560;BME280;62987;52.382;9.752;2023-07-28T01:17:37;99665.94;;;17.09;100.00
72560;BME280;62987;52.382;9.752;2023-07-28T01:20:06;99659.84;;;17.07;100.00
72560;BME280;62987;52.382;9.752;2023-07-28T01:22:57;99654.75;;;17.04;100.00
72560;BME280;62987;52.382;9.752;2023-07-28T01:25:43;99643.41;;;17.01;100.00
72560;BME280;62987;52.382;9.752;2023-07-28T01:28:13;99655.91;;;17.11;100.00
72560;BME280;62987;52.382;9.752;2023-07-28T01:30:41;99655.91;;;17.11;100.00
72560;BME280;62987;52.382;9.752;2023-07-28T01:33:09;99659.31;;;17.13;100.00
72560;BME280;62987;52.382;9.752;2023-07-28T01:35:37;99669.50;;;17.10;100.00
72560;BME280;62987;52.382;9.752;2023-07-28T01:38:05;99656.72;;;17.02;100.00
72560;BME280;62987;52.382;9.752;2023-07-28T01:40:34;99640.84;;;16.99;100.00
72560;BME280;62987;52.382;9.752;2023-07-28T01:43:02;99660.13;;;17.04;100.00
72560;BME280;62987;52.382;9.752;2023-07-28T01:45:31;99665.56;;;17.14;100.00
72560;BME280;62987;52.382;9.752;2023-07-28T01:47:59;99660.94;;;17.05;100.00
72560;BME280;62987;52.382;9.752;2023-07-28T01:50:27;99669.75;;;17.07;100.00
72560;BME280;62987;52.382;9.752;2023-07-28T01:52:55;99668.44;;;17.01;100.00
72560;BME280;62987;52.382;9.752;2023-07-28T01:55:23;99673.69;;;17.03;100.00
72560;BME280;62987;52.382;9.752;2023-07-28T01:57:56;99670.72;;;17.06;100.00
72560;BME280;62987;52.382;9.752;2023-07-28T02:00:25;99670.16;;;17.02;100.00
72560;BME280;62987;52.382;9.752;2023-07-28T02:02:54;99670.16;;;17.02;100.00
72560;BME280;62987;52.382;9.752;2023-07-28T02:05:24;99672.56;;;17.05;100.00
72560;BME280;62987;52.382;9.752;2023-07-28T02:07:52;99672.84;;;17.02;100.00
72560;BME280;62987;52.382;9.752;2023-07-28T02:10:22;99669.28;;;17.02;100.00
72560;BME280;62987;52.382;9.752;2023-07-28T02:12:50;99671.69;;;17.05;100.00
72560;BME280;62987;52.382;9.752;2023-07-28T02:15:18;99667.06;;;17.07;100.00
72560;BME280;62987;52.382;9.752;2023-07-28T02:17:46;99669.00;;;17.05;100.00
72560;BME280;62987;52.382;9.752;2023-07-28T02:20:16;99659.41;;;17.02;100.00
72560;BME280;62987;52.382;9.752;2023-07-28T02:22:44;99647.38;;;17.06;100.00
72560;BME280;62987;52.382;9.752;2023-07-28T02:25:12;99667.78;;;17.09;100.00
72560;BME280;62987;52.382;9.752;2023-07-28T02:27:40;99657.38;;;17.15;100.00
72560;BME280;62987;52.382;9.752;2023-07-28T02:30:08;99645.97;;;17.02;100.00
72560;BME280;62987;52.382;9.752;2023-07-28T02:32:37;99637.81;;;16.93;100.00
72560;BME280;62987;52.382;9.752;2023-07-28T02:35:06;99674.22;;;17.17;100.00
72560;BME280;62987;52.382;9.752;2023-07-28T02:37:35;99671.25;;;17.21;100.00
72560;BME280;62987;52.382;9.752;2023-07-28T02:40:04;99672.97;;;17.22;100.00
72560;BME280;62987;52.382;9.752;2023-07-28T02:42:32;99656.84;;;17.22;100.00
72560;BME280;62987;52.382;9.752;2023-07-28T02:45:02;99656.19;;;17.08;100.00
72560;BME280;62987;52.382;9.752;2023-07-28T02:47:30;99680.03;;;17.23;100.00
72560;BME280;62987;52.382;9.752;2023-07-28T02:49:58;99660.69;;;17.08;100.00
72560;BME280;62987;52.382;9.752;2023-07-28T02:52:26;99683.97;;;17.18;100.00
72560;BME280;62987;52.382;9.752;2023-07-28T02:54:56;99676.41;;;17.12;100.00
72560;BME280;62987;52.382;9.752;2023-07-28T02:57:24;99683.09;;;17.18;100.00
72560;BME280;62987;52.382;9.752;2023-07-28T02:59:52;99700.06;;;17.18;100.00
72560;BME280;62987;52.382;9.752;2023-07-28T03:02:20;99694.13;;;17.15;100.00
72560;BME280;62987;52.382;9.752;2023-07-28T03:04:49;99680.94;;;17.12;100.00
72560;BME280;62987;52.382;9.752;2023-07-28T03:07:23;99693.06;;;17.27;100.00
72560;BME280;62987;52.382;9.752;2023-07-28T03:09:58;99673.09;;;17.20;100.00
72560;BME280;62987;52.382;9.752;2023-07-28T03:12:27;99695.03;;;17.25;100.00
72560;BME280;62987;52.382;9.752;2023-07-28T03:14:55;99689.28;;;17.30;100.00
72560;BME280;62987;52.382;9.752;2023-07-28T03:17:23;99674.22;;;17.17;100.00
72560;BME280;62987;52.382;9.752;2023-07-28T03:19:52;99684.13;;;17.17;100.00
72560;BME280;62987;52.382;9.752;2023-07-28T03:22:20;99687.94;;;17.24;100.00
72560;BME280;62987;52.382;9.752;2023-07-28T03:24:48;99698.31;;;17.29;100.00
72560;BME280;62987;52.382;9.752;2023-07-28T03:27:17;99693.19;;;17.26;100.00
72560;BME280;62987;52.382;9.752;2023-07-28T03:29:46;99690.50;;;17.26;100.00
72560;BME280;62987;52.382;9.752;2023-07-28T03:32:15;99693.59;;;17.21;100.00
72560;BME280;62987;52.382;9.752;2023-07-28T03:34:43;99694.00;;;17.16;100.00
72560;BME280;62987;52.382;9.752;2023-07-28T03:37:17;99698.84;;;17.23;100.00
72560;BME280;62987;52.382;9.752;2023-07-28T03:39:45;99701.88;;;17.29;100.00
72560;BME280;62987;52.382;9.752;2023-07-28T03:42:14;99706.84;;;17.34;100.00
72560;BME280;62987;52.382;9.752;2023-07-28T03:44:44;99710.97;;;17.38;100.00
72560;BME280;62987;52.382;9.752;2023-07-28T03:47:12;99702.44;;;17.33;100.00
72560;BME280;62987;52.382;9.752;2023-07-28T03:49:40;99702.72;;;17.30;100.00
72560;BME280;62987;52.382;9.752;2023-07-28T03:52:08;99710.06;;;17.28;100.00
72560;BME280;62987;52.382;9.752;2023-07-28T03:54:36;99710.31;;;17.25;100.00
72560;BME280;62987;52.382;9.752;2023-07-28T03:57:04;99708.09;;;17.30;100.00
72560;BME280;62987;52.382;9.752;2023-07-28T03:59:33;99701.53;;;17.23;100.00
72560;BME280;62987;52.382;9.752;2023-07-28T04:02:02;99708.47;;;17.25;100.00
72560;BME280;62987;52.382;9.752;2023-07-28T04:04:30;99721.66;;;17.28;100.00
72560;BME280;62987;52.382;9.752;2023-07-28T04:06:58;99705.22;;;17.22;100.00
72560;BME280;62987;52.382;9.752;2023-07-28T04:09:26;99697.78;;;17.14;100.00
72560;BME280;62987;52.382;9.752;2023-07-28T04:11:54;99710.84;;;17.18;100.00
72560;BME280;62987;52.382;9.752;2023-07-28T04:14:22;99705.44;;;17.18;100.00
72560;BME280;62987;52.382;9.752;2023-07-28T04:16:50;99723.63;;;17.26;100.00
72560;BME280;62987;52.382;9.752;2023-07-28T04:19:20;99719.84;;;17.29;100.00
72560;BME280;62987;52.382;9.752;2023-07-28T04:21:48;99709.44;;;17.24;100.00
72560;BME280;62987;52.382;9.752;2023-07-28T04:24:16;99715.44;;;17.28;100.00
72560;BME280;62987;52.382;9.752;2023-07-28T04:26:46;99709.72;;;17.21;100.00
72560;BME280;62987;52.382;9.752;2023-07-28T04:29:16;99722.53;;;17.29;100.00
72560;BME280;62987;52.382;9.752;2023-07-28T04:31:45;99722.63;;;17.27;100.00
72560;BME280;62987;52.382;9.752;2023-07-28T04:34:17;99723.69;;;17.36;100.00
72560;BME280;62987;52.382;9.752;2023-07-28T04:37:05;99720.19;;;17.45;100.00
72560;BME280;62987;52.382;9.752;2023-07-28T04:39:58;99697.88;;;17.24;100.00
72560;BME280;62987;52.382;9.752;2023-07-28T04:42:32;99732.66;;;17.46;100.00
72560;BME280;62987;52.382;9.752;2023-07-28T04:45:00;99726.84;;;17.41;100.00
72560;BME280;62987;52.382;9.752;2023-07-28T04:47:30;99698.56;;;17.26;100.00
72560;BME280;62987;52.382;9.752;2023-07-28T04:49:58;99733.41;;;17.48;100.00
72560;BME280;62987;52.382;9.752;2023-07-28T04:53:05;99737.06;;;17.47;100.00
72560;BME280;62987;52.382;9.752;2023-07-28T04:55:39;99736.94;;;17.48;100.00
72560;BME280;62987;52.382;9.752;2023-07-28T04:58:07;99731.69;;;17.47;100.00
72560;BME280;62987;52.382;9.752;2023-07-28T05:00:45;99742.63;;;17.55;100.00
72560;BME280;62987;52.382;9.752;2023-07-28T05:03:13;99750.72;;;17.55;100.00
72560;BME280;62987;52.382;9.752;2023-07-28T05:05:48;99754.38;;;17.54;100.00
72560;BME280;62987;52.382;9.752;2023-07-28T05:08:17;99753.66;;;17.52;100.00
72560;BME280;62987;52.382;9.752;2023-07-28T05:10:45;99736.22;;;17.46;100.00
72560;BME280;62987;52.382;9.752;2023-07-28T05:13:14;99736.63;;;17.42;100.00
72560;BME280;62987;52.382;9.752;2023-07-28T05:15:50;99756.75;;;17.47;100.00
72560;BME280;62987;52.382;9.752;2023-07-28T05:18:38;99758.16;;;17.51;100.00
72560;BME280;62987;52.382;9.752;2023-07-28T05:21:28;99762.56;;;17.52;100.00
72560;BME280;62987;52.382;9.752;2023-07-28T05:23:57;99760.19;;;17.59;100.00
72560;BME280;62987;52.382;9.752;2023-07-28T05:26:26;99755.59;;;17.61;100.00
72560;BME280;62987;52.382;9.752;2023-07-28T05:28:54;99760.97;;;17.61;100.00
72560;BME280;62987;52.382;9.752;2023-07-28T05:31:22;99757.50;;;17.59;100.00
72560;BME280;62987;52.382;9.752;2023-07-28T05:33:50;99750.97;;;17.52;100.00
72560;BME280;62987;52.382;9.752;2023-07-28T05:36:20;99772.41;;;17.63;100.00
72560;BME280;62987;52.382;9.752;2023-07-28T05:38:49;99778.53;;;17.65;100.00
72560;BME280;62987;52.382;9.752;2023-07-28T05:41:19;99774.88;;;17.66;100.00
72560;BME280;62987;52.382;9.752;2023-07-28T05:43:47;99781.72;;;17.59;100.00
72560;BME280;62987;52.382;9.752;2023-07-28T05:46:18;99785.63;;;17.66;100.00
72560;BME280;62987;52.382;9.752;2023-07-28T05:48:47;99784.50;;;17.69;100.00
72560;BME280;62987;52.382;9.752;2023-07-28T05:51:15;99785.81;;;17.74;100.00
72560;BME280;62987;52.382;9.752;2023-07-28T05:53:43;99787.03;;;17.70;100.00
72560;BME280;62987;52.382;9.752;2023-07-28T05:56:11;99775.84;;;17.65;100.00
72560;BME280;62987;52.382;9.752;2023-07-28T05:58:40;99789.94;;;17.78;100.00
72560;BME280;62987;52.382;9.752;2023-07-28T06:01:08;99781.41;;;17.73;100.00
72560;BME280;62987;52.382;9.752;2023-07-28T06:03:55;99787.69;;;17.83;100.00
72560;BME280;62987;52.382;9.752;2023-07-28T06:06:28;99794.53;;;17.87;100.00
72560;BME280;62987;52.382;9.752;2023-07-28T06:08:56;99796.81;;;17.92;100.00
72560;BME280;62987;52.382;9.752;2023-07-28T06:11:24;99801.09;;;17.94;100.00
72560;BME280;62987;52.382;9.752;2023-07-28T06:13:54;99787.75;;;17.93;100.00
72560;BME280;62987;52.382;9.752;2023-07-28T06:16:24;99784.22;;;17.92;100.00
72560;BME280;62987;52.382;9.752;2023-07-28T06:18:52;99766.03;;;17.85;100.00
72560;BME280;62987;52.382;9.752;2023-07-28T06:21:23;99795.28;;;17.99;100.00
72560;BME280;62987;52.382;9.752;2023-07-28T06:23:51;99806.31;;;17.96;100.00
72560;BME280;62987;52.382;9.752;2023-07-28T06:26:19;99812.63;;;17.85;100.00
72560;BME280;62987;52.382;9.752;2023-07-28T06:28:47;99812.75;;;17.84;100.00
72560;BME280;62987;52.382;9.752;2023-07-28T06:31:17;99810.34;;;17.81;100.00
72560;BME280;62987;52.382;9.752;2023-07-28T06:33:46;99818.31;;;17.82;100.00
72560;BME280;62987;52.382;9.752;2023-07-28T06:36:14;99798.41;;;17.74;100.00
72560;BME280;62987;52.382;9.752;2023-07-28T06:38:44;99824.13;;;17.87;100.00
72560;BME280;62987;52.382;9.752;2023-07-28T06:41:15;99822.81;;;17.82;100.00
72560;BME280;62987;52.382;9.752;2023-07-28T06:43:45;99819.41;;;17.80;100.00
72560;BME280;62987;52.382;9.752;2023-07-28T06:46:13;99829.97;;;17.92;100.00
72560;BME280;62987;52.382;9.752;2023-07-28T06:48:42;99827.16;;;17.94;100.00
72560;BME280;62987;52.382;9.752;2023-07-28T06:51:10;99818.88;;;17.86;100.00
72560;BME280;62987;52.382;9.752;2023-07-28T06:53:40;99831.38;;;17.96;100.00
72560;BME280;62987;52.382;9.752;2023-07-28T06:56:08;99847.00;;;18.03;100.00
72560;BME280;62987;52.382;9.752;2023-07-28T06:58:36;99843.63;;;18.01;100.00
72560;BME280;62987;52.382;9.752;2023-07-28T07:01:04;99839.75;;;17.93;100.00
72560;BME280;62987;52.382;9.752;2023-07-28T07:03:33;99845.03;;;18.05;100.00
72560;BME280;62987;52.382;9.752;2023-07-28T07:06:02;99839.78;;;18.03;100.00
72560;BME280;62987;52.382;9.752;2023-07-28T07:08:30;99816.63;;;17.91;100.00
72560;BME280;62987;52.382;9.752;2023-07-28T07:10:59;99848.19;;;18.10;100.00
72560;BME280;62987;52.382;9.752;2023-07-28T07:13:27;99834.28;;;18.05;100.00
72560;BME280;62987;52.382;9.752;2023-07-28T07:15:55;99855.47;;;18.19;100.00
72560;BME280;62987;52.382;9.752;2023-07-28T07:18:23;99832.31;;;18.07;100.00
72560;BME280;62987;52.382;9.752;2023-07-28T07:20:51;99843.72;;;18.20;100.00
72560;BME280;62987;52.382;9.752;2023-07-28T07:23:21;99843.31;;;18.24;100.00
72560;BME280;62987;52.382;9.752;2023-07-28T07:25:49;99863.34;;;18.41;100.00
72560;BME280;62987;52.382;9.752;2023-07-28T07:28:17;99863.53;;;18.49;100.00
72560;BME280;62987;52.382;9.752;2023-07-28T07:30:46;99850.50;;;18.54;100.00
72560;BME280;62987;52.382;9.752;2023-07-28T07:33:15;99857.00;;;18.72;100.00
72560;BME280;62987;52.382;9.752;2023-07-28T07:35:43;99858.66;;;18.64;100.00
72560;BME280;62987;52.382;9.752;2023-07-28T07:38:11;99859.22;;;18.67;100.00
72560;BME280;62987;52.382;9.752;2023-07-28T07:40:40;99858.16;;;18.80;100.00
72560;BME280;62987;52.382;9.752;2023-07-28T07:43:09;99858.50;;;19.05;100.00
72560;BME280;62987;52.382;9.752;2023-07-28T07:45:37;99836.22;;;19.13;100.00
72560;BME280;62987;52.382;9.752;2023-07-28T07:48:05;99850.28;;;19.26;100.00
72560;BME280;62987;52.382;9.752;2023-07-28T07:50:33;99845.19;;;19.23;100.00
72560;BME280;62987;52.382;9.752;2023-07-28T07:53:01;99855.53;;;19.28;100.00
72560;BME280;62987;52.382;9.752;2023-07-28T07:55:29;99862.06;;;19.25;100.00
72560;BME280;62987;52.382;9.752;2023-07-28T07:57:59;99836.94;;;19.05;100.00
72560;BME280;62987;52.382;9.752;2023-07-28T08:00:27;99856.25;;;19.20;100.00
72560;BME280;62987;52.382;9.752;2023-07-28T08:02:55;99870.13;;;19.06;100.00
72560;BME280;62987;52.382;9.752;2023-07-28T08:05:23;99877.22;;;19.07;100.00
72560;BME280;62987;52.382;9.752;2023-07-28T08:07:52;99870.09;;;18.96;100.00
72560;BME280;62987;52.382;9.752;2023-07-28T08:10:20;99868.13;;;18.98;100.00
72560;BME280;62987;52.382;9.752;2023-07-28T08:12:48;99877.38;;;19.15;100.00
72560;BME280;62987;52.382;9.752;2023-07-28T08:15:17;99873.00;;;19.24;100.00
72560;BME280;62987;52.382;9.752;2023-07-28T08:17:45;99870.47;;;19.41;100.00
72560;BME280;62987;52.382;9.752;2023-07-28T08:20:13;99879.13;;;19.64;100.00
72560;BME280;62987;52.382;9.752;2023-07-28T08:22:42;99878.16;;;19.75;100.00
72560;BME280;62987;52.382;9.752;2023-07-28T08:25:10;99877.28;;;19.93;100.00
72560;BME280;62987;52.382;9.752;2023-07-28T08:27:38;99893.44;;;20.13;100.00
72560;BME280;62987;52.382;9.752;2023-07-28T08:30:07;99886.91;;;20.34;100.00
72560;BME280;62987;52.382;9.752;2023-07-28T08:32:36;99891.97;;;20.47;100.00
72560;BME280;62987;52.382;9.752;2023-07-28T08:35:05;99882.44;;;20.80;100.00
72560;BME280;62987;52.382;9.752;2023-07-28T08:37:34;99879.22;;;20.94;100.00
72560;BME280;62987;52.382;9.752;2023-07-28T08:40:03;99869.22;;;21.32;100.00
72560;BME280;62987;52.382;9.752;2023-07-28T08:42:36;99874.75;;;21.48;100.00
72560;BME280;62987;52.382;9.752;2023-07-28T08:45:06;99890.75;;;21.24;100.00
72560;BME280;62987;52.382;9.752;2023-07-28T08:47:37;99895.94;;;21.17;100.00
72560;BME280;62987;52.382;9.752;2023-07-28T08:50:06;99892.72;;;21.31;100.00
72560;BME280;62987;52.382;9.752;2023-07-28T08:52:34;99890.16;;;21.30;100.00
72560;BME280;62987;52.382;9.752;2023-07-28T08:55:02;99881.41;;;21.18;100.00
72560;BME280;62987;52.382;9.752;2023-07-28T08:57:30;99860.47;;;20.93;100.00
72560;BME280;62987;52.382;9.752;2023-07-28T08:59:58;99891.47;;;21.43;100.00
72560;BME280;62987;52.382;9.752;2023-07-28T09:02:27;99895.19;;;21.42;100.00
72560;BME280;62987;52.382;9.752;2023-07-28T09:04:56;99885.81;;;21.72;100.00
72560;BME280;62987;52.382;9.752;2023-07-28T09:07:24;99885.13;;;21.88;100.00
72560;BME280;62987;52.382;9.752;2023-07-28T09:09:59;99892.25;;;21.53;100.00
72560;BME280;62987;52.382;9.752;2023-07-28T09:12:31;99890.84;;;21.32;100.00
72560;BME280;62987;52.382;9.752;2023-07-28T09:15:02;99894.94;;;21.36;100.00
72560;BME280;62987;52.382;9.752;2023-07-28T09:17:32;99898.59;;;21.62;100.00
72560;BME280;62987;52.382;9.752;2023-07-28T09:20:12;99902.31;;;21.97;100.00
72560;BME280;62987;52.382;9.752;2023-07-28T09:22:41;99902.06;;;22.08;100.00
72560;BME280;62987;52.382;9.752;2023-07-28T09:25:14;99904.50;;;22.19;100.00
72560;BME280;62987;52.382;9.752;2023-07-28T09:27:49;99915.06;;;22.56;100.00
72560;BME280;62987;52.382;9.752;2023-07-28T09:30:17;99908.06;;;22.71;100.00
72560;BME280;62987;52.382;9.752;2023-07-28T09:32:47;99890.53;;;22.57;100.00
72560;BME280;62987;52.382;9.752;2023-07-28T09:35:18;99896.63;;;22.59;100.00
72560;BME280;62987;52.382;9.752;2023-07-28T09:37:47;99915.19;;;22.46;100.00
72560;BME280;62987;52.382;9.752;2023-07-28T09:40:17;99889.81;;;22.21;100.00
72560;BME280;62987;52.382;9.752;2023-07-28T09:42:47;99896.78;;;22.58;100.00
72560;BME280;62987;52.382;9.752;2023-07-28T09:45:22;99896.63;;;22.85;100.00
72560;BME280;62987;52.382;9.752;2023-07-28T09:47:56;99875.00;;;22.67;100.00
72560;BME280;62987;52.382;9.752;2023-07-28T09:50:29;99902.09;;;23.01;100.00
72560;BME280;62987;52.382;9.752;2023-07-28T09:53:02;99886.28;;;22.81;100.00
72560;BME280;62987;52.382;9.752;2023-07-28T09:55:30;99901.91;;;22.95;100.00
72560;BME280;62987;52.382;9.752;2023-07-28T09:58:04;99897.25;;;23.21;100.00
72560;BME280;62987;52.382;9.752;2023-07-28T10:00:33;99903.03;;;23.18;100.00
72560;BME280;62987;52.382;9.752;2023-07-28T10:03:02;99886.28;;;22.89;100.00
72560;BME280;62987;52.382;9.752;2023-07-28T10:05:33;99909.97;;;23.13;100.00
72560;BME280;62987;52.382;9.752;2023-07-28T10:08:01;99913.91;;;22.84;100.00
72560;BME280;62987;52.382;9.752;2023-07-28T10:10:31;99918.88;;;22.97;100.00
72560;BME280;62987;52.382;9.752;2023-07-28T10:13:00;99909.34;;;23.35;100.00
72560;BME280;62987;52.382;9.752;2023-07-28T10:15:30;99908.34;;;23.44;100.00
72560;BME280;62987;52.382;9.752;2023-07-28T10:17:59;99895.72;;;23.10;100.00
72560;BME280;62987;52.382;9.752;2023-07-28T10:20:34;99916.94;;;23.23;100.00
72560;BME280;62987;52.382;9.752;2023-07-28T10:23:07;99891.41;;;22.92;100.00
72560;BME280;62987;52.382;9.752;2023-07-28T10:25:36;99912.50;;;23.06;100.00
72560;BME280;62987;52.382;9.752;2023-07-28T10:28:06;99895.47;;;22.88;100.00
72560;BME280;62987;52.382;9.752;2023-07-28T10:30:36;99919.63;;;23.15;100.00
72560;BME280;62987;52.382;9.752;2023-07-28T10:33:05;99919.44;;;23.08;100.00
72560;BME280;62987;52.382;9.752;2023-07-28T10:35:35;99935.13;;;22.89;100.00
72560;BME280;62987;52.382;9.752;2023-07-28T10:38:28;99936.78;;;22.82;100.00
72560;BME280;62987;52.382;9.752;2023-07-28T10:41:07;99919.50;;;22.83;100.00
72560;BME280;62987;52.382;9.752;2023-07-28T10:43:35;99929.13;;;23.11;100.00
72560;BME280;62987;52.382;9.752;2023-07-28T10:46:04;99932.59;;;23.37;100.00
72560;BME280;62987;52.382;9.752;2023-07-28T10:48:34;99925.13;;;23.31;100.00
72560;BME280;62987;52.382;9.752;2023-07-28T10:51:04;99916.25;;;23.13;100.00
72560;BME280;62987;52.382;9.752;2023-07-28T10:53:32;99935.84;;;22.99;100.00
72560;BME280;62987;52.382;9.752;2023-07-28T10:56:02;99914.25;;;22.81;100.00
72560;BME280;62987;52.382;9.752;2023-07-28T10:58:33;99935.63;;;23.26;100.00
72560;BME280;62987;52.382;9.752;2023-07-28T11:01:01;99925.44;;;24.11;100.00
72560;BME280;62987;52.382;9.752;2023-07-28T11:03:29;99922.72;;;23.95;100.00
72560;BME280;62987;52.382;9.752;2023-07-28T11:05:57;99927.16;;;24.20;100.00
72560;BME280;62987;52.382;9.752;2023-07-28T11:08:27;99932.19;;;23.99;100.00
72560;BME280;62987;52.382;9.752;2023-07-28T11:10:55;99908.94;;;23.64;100.00
72560;BME280;62987;52.382;9.752;2023-07-28T11:13:23;99936.78;;;23.74;100.00
72560;BME280;62987;52.382;9.752;2023-07-28T11:16:07;99927.66;;;23.91;100.00
72560;BME280;62987;52.382;9.752;2023-07-28T11:18:37;99923.22;;;24.14;100.00
72560;BME280;62987;52.382;9.752;2023-07-28T11:21:05;99926.13;;;23.97;100.00
72560;BME280;62987;52.382;9.752;2023-07-28T11:23:35;99932.75;;;24.35;100.00
72560;BME280;62987;52.382;9.752;2023-07-28T11:26:05;99926.63;;;24.49;100.00
72560;BME280;62987;52.382;9.752;2023-07-28T11:28:38;99930.75;;;24.84;100.00
72560;BME280;62987;52.382;9.752;2023-07-28T11:31:07;99915.66;;;24.81;100.00
72560;BME280;62987;52.382;9.752;2023-07-28T11:33:36;99919.16;;;25.06;100.00
72560;BME280;62987;52.382;9.752;2023-07-28T11:36:04;99920.94;;;25.22;100.00
72560;BME280;62987;52.382;9.752;2023-07-28T11:38:35;99918.16;;;25.38;100.00
72560;BME280;62987;52.382;9.752;2023-07-28T11:41:04;99913.25;;;25.64;100.00
72560;BME280;62987;52.382;9.752;2023-07-28T11:43:33;99919.03;;;26.07;100.00
72560;BME280;62987;52.382;9.752;2023-07-28T11:46:02;99920.00;;;26.37;100.00
72560;BME280;62987;52.382;9.752;2023-07-28T11:48:30;99913.25;;;26.62;100.00
72560;BME280;62987;52.382;9.752;2023-07-28T11:50:59;99908.75;;;26.98;100.00
72560;BME280;62987;52.382;9.752;2023-07-28T11:53:32;99920.31;;;26.56;100.00
72560;BME280;62987;52.382;9.752;2023-07-28T11:56:02;99895.09;;;27.49;100.00
72560;BME280;62987;52.382;9.752;2023-07-28T11:58:31;99904.53;;;28.04;100.00
72560;BME280;62987;52.382;9.752;2023-07-28T12:01:07;99908.09;;;26.82;100.00
72560;BME280;62987;52.382;9.752;2023-07-28T12:03:36;99921.22;;;26.11;100.00
72560;BME280;62987;52.382;9.752;2023-07-28T12:06:05;99913.16;;;26.85;100.00
72560;BME280;62987;52.382;9.752;2023-07-28T12:08:39;99921.78;;;27.83;100.00
72560;BME280;62987;52.382;9.752;2023-07-28T12:11:15;99893.88;;;27.16;100.00
72560;BME280;62987;52.382;9.752;2023-07-28T12:13:47;99924.13;;;26.99;100.00
72560;BME280;62987;52.382;9.752;2023-07-28T12:16:37;99926.06;;;27.35;100.00
72560;BME280;62987;52.382;9.752;2023-07-28T12:19:09;99920.88;;;27.25;100.00
72560;BME280;62987;52.382;9.752;2023-07-28T12:21:37;99922.31;;;28.14;100.00
72560;BME280;62987;52.382;9.752;2023-07-28T12:24:05;99939.72;;;27.35;100.00
72560;BME280;62987;52.382;9.752;2023-07-28T12:26:35;99932.38;;;28.63;100.00
72560;BME280;62987;52.382;9.752;2023-07-28T12:29:06;99930.91;;;28.88;100.00
72560;BME280;62987;52.382;9.752;2023-07-28T12:31:38;99926.50;;;28.66;100.00
72560;BME280;62987;52.382;9.752;2023-07-28T12:34:09;99937.81;;;28.56;100.00
72560;BME280;62987;52.382;9.752;2023-07-28T12:36:51;99929.38;;;29.61;100.00
72560;BME280;62987;52.382;9.752;2023-07-28T12:39:20;99910.91;;;28.67;100.00
72560;BME280;62987;52.382;9.752;2023-07-28T12:41:53;99942.13;;;29.34;100.00
72560;BME280;62987;52.382;9.752;2023-07-28T12:44:24;99932.47;;;28.20;100.00
72560;BME280;62987;52.382;9.752;2023-07-28T12:46:55;99949.03;;;27.76;100.00
72560;BME280;62987;52.382;9.752;2023-07-28T12:49:23;99947.28;;;27.90;100.00
72560;BME280;62987;52.382;9.752;2023-07-28T12:51:51;99950.97;;;28.18;100.00
72560;BME280;62987;52.382;9.752;2023-07-28T12:54:22;99959.78;;;27.27;100.00
72560;BME280;62987;52.382;9.752;2023-07-28T12:56:50;99952.53;;;28.06;100.00
72560;BME280;62987;52.382;9.752;2023-07-28T12:59:38;99951.34;;;28.65;100.00
72560;BME280;62987;52.382;9.752;2023-07-28T13:02:10;99946.25;;;28.12;100.00
72560;BME280;62987;52.382;9.752;2023-07-28T13:04:38;99948.19;;;27.25;100.00